Airport View

Enter ICAO identifier to see the current METAR for that AWOS.

KFNL for example

KJDN 310348Z AUTO 00000KT 15/12 A2970

31 Aug 2014 04:26

Other Area AWOS: KGGW - KMLS - KOLF - KPO1

TAF KGGW 302320Z 3100/3124 VRB05KT P6SM SCT090 FM310600 VRB04KT P6SM BKN190 FM311800 29009KT P6SM SCT100 FM312100 29013KT P6SM SCT100